createdAt,value
2018-11-06T00:01:12.033Z,10.20
2018-11-06T00:06:15.167Z,10.29
2018-11-06T00:11:18.209Z,10.29
2018-11-06T00:16:21.263Z,10.23
2018-11-06T00:21:24.272Z,10.08
2018-11-06T00:26:27.355Z,9.93
2018-11-06T00:31:30.411Z,9.98
2018-11-06T00:36:33.433Z,9.98
2018-11-06T00:41:36.554Z,9.94
2018-11-06T00:46:39.569Z,9.81
2018-11-06T00:51:42.697Z,9.78
2018-11-06T00:56:45.705Z,9.80
2018-11-06T01:01:48.779Z,9.81
2018-11-06T01:06:51.827Z,9.76
2018-11-06T01:11:54.869Z,9.80
2018-11-06T01:16:57.901Z,9.74
2018-11-06T01:22:00.949Z,9.40
2018-11-06T01:27:04.310Z,9.07
2018-11-06T01:32:07.364Z,9.20
2018-11-06T01:37:10.369Z,9.33
2018-11-06T01:42:13.470Z,9.38
2018-11-06T01:47:16.521Z,9.36
2018-11-06T01:52:19.540Z,9.29
2018-11-06T01:57:22.659Z,9.33
2018-11-06T02:02:25.822Z,9.24
2018-11-06T02:07:28.849Z,9.18
2018-11-06T02:12:32.529Z,9.10
2018-11-06T02:17:35.651Z,8.95
2018-11-06T02:22:39.394Z,8.76
2018-11-06T02:27:42.438Z,8.66
2018-11-06T02:32:46.457Z,8.54
2018-11-06T02:37:49.483Z,8.70
2018-11-06T02:42:52.471Z,8.76
2018-11-06T02:47:55.480Z,8.73
2018-11-06T02:52:58.511Z,8.77
2018-11-06T02:58:01.497Z,8.11
2018-11-06T03:03:04.783Z,8.44
2018-11-06T03:08:07.805Z,8.30
2018-11-06T03:13:10.818Z,8.42
2018-11-06T03:18:13.830Z,8.57
2018-11-06T03:23:16.834Z,8.60
2018-11-06T03:28:19.871Z,8.62
2018-11-06T03:33:22.955Z,8.62
2018-11-06T03:38:26.004Z,8.60
2018-11-06T03:43:29.017Z,8.51
2018-11-06T03:48:32.073Z,8.46
2018-11-06T03:53:35.124Z,8.51
2018-11-06T03:58:38.146Z,8.51
2018-11-06T04:03:41.211Z,8.28
2018-11-06T04:08:44.205Z,8.01
2018-11-06T04:13:47.205Z,7.73
2018-11-06T04:18:50.430Z,7.87
2018-11-06T04:23:53.500Z,8.12
2018-11-06T04:28:56.523Z,8.20
2018-11-06T04:33:59.667Z,8.14
2018-11-06T04:39:03.980Z,8.05
2018-11-06T04:44:07.420Z,7.96
2018-11-06T04:49:10.435Z,8.00
2018-11-06T04:54:13.436Z,8.15
2018-11-06T04:59:16.457Z,8.11
2018-11-06T05:04:19.514Z,8.04
2018-11-06T05:09:22.607Z,8.03
2018-11-06T05:14:25.688Z,8.09
2018-11-06T05:19:28.688Z,8.06
2018-11-06T05:24:33.250Z,8.02
2018-11-06T05:29:36.366Z,7.92
2018-11-06T05:34:39.459Z,7.92
2018-11-06T05:40:00.039Z,7.78
2018-11-06T05:45:03.105Z,7.86
2018-11-06T05:50:06.299Z,7.97
2018-11-06T05:55:09.346Z,7.78
2018-11-06T06:00:12.420Z,7.83
2018-11-06T06:05:15.451Z,7.98
2018-11-06T06:10:18.470Z,8.04
2018-11-06T06:15:28.172Z,7.84
2018-11-06T06:20:31.287Z,7.75
2018-11-06T06:25:34.371Z,7.69
2018-11-06T06:30:37.433Z,7.71
2018-11-06T06:35:40.464Z,7.82
2018-11-06T06:40:43.581Z,7.81
2018-11-06T06:45:46.663Z,7.98
2018-11-06T06:50:49.849Z,8.08
2018-11-06T06:55:52.970Z,8.13
2018-11-06T07:00:59.598Z,8.20
2018-11-06T07:06:02.783Z,8.17
2018-11-06T07:11:05.975Z,8.16
2018-11-06T07:16:09.128Z,8.15
2018-11-06T07:21:12.242Z,8.06
2018-11-06T07:26:15.416Z,8.26
2018-11-06T07:31:18.621Z,8.56
2018-11-06T07:36:21.821Z,8.73
2018-11-06T07:41:25.027Z,8.87
2018-11-06T07:46:28.163Z,9.00
2018-11-06T07:51:31.358Z,9.10
2018-11-06T07:56:34.527Z,8.95
2018-11-06T08:01:40.728Z,9.14
2018-11-06T08:06:43.906Z,9.42
2018-11-06T08:11:46.996Z,9.68
2018-11-06T08:16:50.129Z,9.90
2018-11-06T08:21:53.231Z,10.22
2018-11-06T08:26:56.424Z,10.56
2018-11-06T08:32:00.425Z,10.76
2018-11-06T08:37:02.702Z,10.95
2018-11-06T08:42:06.269Z,11.22
2018-11-06T08:47:09.315Z,11.42
2018-11-06T08:52:12.356Z,11.70
2018-11-06T08:57:15.422Z,12.04
2018-11-06T09:02:18.514Z,12.08
2018-11-06T09:07:21.539Z,12.38
2018-11-06T09:12:24.583Z,12.54
2018-11-06T09:17:27.669Z,12.67
2018-11-06T09:22:30.799Z,12.86
2018-11-06T09:27:33.855Z,12.95
2018-11-06T09:32:36.923Z,13.11
2018-11-06T09:37:40.754Z,13.33
2018-11-06T09:42:43.799Z,13.40
2018-11-06T09:47:46.852Z,13.65
2018-11-06T09:52:50.015Z,13.83
2018-11-06T09:57:53.041Z,14.01
2018-11-06T10:02:56.078Z,14.24
2018-11-06T10:07:59.110Z,14.15
2018-11-06T10:13:02.145Z,14.08
2018-11-06T10:18:05.996Z,14.43
2018-11-06T10:23:09.044Z,14.73
2018-11-06T10:28:12.099Z,14.75
2018-11-06T10:33:15.157Z,14.87
2018-11-06T10:38:18.241Z,15.12
2018-11-06T10:43:21.294Z,15.31
2018-11-06T10:48:24.343Z,15.46
2018-11-06T10:53:27.490Z,15.52
2018-11-06T10:58:30.551Z,15.70
2018-11-06T11:03:34.738Z,15.97
2018-11-06T11:08:37.779Z,16.15
2018-11-06T11:13:40.828Z,16.46
2018-11-06T11:18:43.908Z,16.68
2018-11-06T11:23:46.959Z,16.92
2018-11-06T11:28:50.031Z,17.06
2018-11-06T11:33:53.091Z,17.13
2018-11-06T11:38:56.094Z,17.35
2018-11-06T11:43:59.102Z,17.62
2018-11-06T11:49:02.140Z,17.72
2018-11-06T11:54:05.505Z,17.84
2018-11-06T11:59:08.454Z,18.01
2018-11-06T12:04:11.532Z,18.21
2018-11-06T12:09:14.572Z,18.39
2018-11-06T12:14:17.663Z,18.40
2018-11-06T12:19:20.683Z,18.32
2018-11-06T12:24:23.777Z,18.31
2018-11-06T12:29:26.791Z,18.40
2018-11-06T12:34:29.796Z,18.48
2018-11-06T12:39:32.831Z,18.47
2018-11-06T12:44:35.884Z,18.63
2018-11-06T12:49:38.941Z,18.50
2018-11-06T12:54:42.035Z,18.63
2018-11-06T12:59:45.102Z,18.76
2018-11-06T13:04:48.176Z,18.91
2018-11-06T13:09:51.290Z,19.05
2018-11-06T13:14:55.257Z,19.07
2018-11-06T13:19:57.391Z,19.11
2018-11-06T13:25:00.438Z,19.09
2018-11-06T13:30:03.712Z,19.09
2018-11-06T13:35:07.135Z,19.00
2018-11-06T13:40:12.626Z,18.97
2018-11-06T13:45:18.348Z,18.97
2018-11-06T13:50:21.234Z,18.98
2018-11-06T13:55:24.323Z,18.85
2018-11-06T14:00:27.450Z,18.64
2018-11-06T14:05:30.514Z,18.41
2018-11-06T14:10:33.580Z,18.23
2018-11-06T14:15:36.614Z,17.90
2018-11-06T14:20:39.665Z,17.91
2018-11-06T14:25:42.752Z,17.88
2018-11-06T14:30:45.808Z,17.84
2018-11-06T14:35:48.957Z,17.75
2018-11-06T14:40:51.986Z,17.70
2018-11-06T14:45:55.053Z,17.63
2018-11-06T14:50:58.124Z,17.62
2018-11-06T14:56:01.222Z,17.63
2018-11-06T15:01:04.375Z,17.52
2018-11-06T15:06:07.459Z,17.38
2018-11-06T15:11:10.488Z,17.18
2018-11-06T15:16:13.539Z,16.96
2018-11-06T15:21:16.598Z,16.75
2018-11-06T15:26:19.707Z,16.69
2018-11-06T15:31:22.939Z,16.63
2018-11-06T15:36:25.982Z,16.65
2018-11-06T15:41:29.101Z,16.54
2018-11-06T15:46:32.084Z,16.44
2018-11-06T15:51:35.139Z,16.37
2018-11-06T15:56:38.182Z,16.32
2018-11-06T16:01:41.674Z,16.22
2018-11-06T16:06:44.726Z,16.24
2018-11-06T16:11:47.748Z,16.21
2018-11-06T16:16:50.822Z,16.19
2018-11-06T16:21:53.854Z,16.21
2018-11-06T16:26:56.903Z,16.14
2018-11-06T16:32:01.300Z,16.14
2018-11-06T16:37:04.721Z,16.03
2018-11-06T16:42:07.839Z,16.09
2018-11-06T16:47:10.985Z,15.97
2018-11-06T16:52:14.067Z,15.97
2018-11-06T16:57:17.263Z,15.90
2018-11-06T17:02:20.341Z,15.76
2018-11-06T17:07:23.536Z,15.80
2018-11-06T17:12:26.646Z,15.86
2018-11-06T17:17:29.733Z,15.81
2018-11-06T17:22:33.011Z,15.84
2018-11-06T17:27:36.337Z,15.86
2018-11-06T17:32:39.937Z,15.70
2018-11-06T17:37:43.065Z,15.76
2018-11-06T17:42:46.186Z,15.83
2018-11-06T17:47:49.278Z,15.81
2018-11-06T17:52:52.559Z,15.72
2018-11-06T17:57:55.602Z,15.72
2018-11-06T18:02:58.660Z,15.77
2018-11-06T18:08:01.766Z,15.69
2018-11-06T18:13:04.927Z,15.41
2018-11-06T18:18:07.993Z,15.45
2018-11-06T18:23:11.039Z,15.45
2018-11-06T18:28:14.066Z,15.38
2018-11-06T18:33:17.134Z,15.25
2018-11-06T18:38:20.261Z,15.16
2018-11-06T18:43:23.385Z,15.06
2018-11-06T18:48:26.454Z,14.85
2018-11-06T18:53:29.549Z,14.78
2018-11-06T18:58:32.610Z,14.72
2018-11-06T19:03:36.126Z,14.73
2018-11-06T19:08:41.479Z,14.79
2018-11-06T19:13:46.297Z,14.88
2018-11-06T19:18:49.522Z,14.84
2018-11-06T19:23:54.223Z,14.76
2018-11-06T19:28:57.564Z,14.56
2018-11-06T19:34:00.578Z,14.55
2018-11-06T19:39:07.479Z,14.49
2018-11-06T19:44:10.523Z,14.53
2018-11-06T19:49:13.571Z,14.55
2018-11-06T19:54:16.692Z,14.59
2018-11-06T19:59:19.678Z,14.41
2018-11-06T20:04:22.782Z,14.52
2018-11-06T20:09:25.883Z,14.40
2018-11-06T20:14:28.903Z,14.30
2018-11-06T20:19:31.941Z,14.38
2018-11-06T20:24:34.995Z,14.36
2018-11-06T20:29:38.170Z,14.34
2018-11-06T20:34:41.433Z,14.34
2018-11-06T20:39:46.344Z,14.28
2018-11-06T20:44:49.567Z,14.37
2018-11-06T20:49:52.913Z,14.35
2018-11-06T20:54:56.174Z,14.32
2018-11-06T20:59:59.263Z,14.31
2018-11-06T21:05:02.316Z,14.28
2018-11-06T21:10:06.120Z,14.22
2018-11-06T21:15:10.542Z,14.09
2018-11-06T21:20:14.311Z,13.91
2018-11-06T21:25:17.418Z,13.75
2018-11-06T21:30:21.052Z,13.53
2018-11-06T21:35:24.072Z,13.35
2018-11-06T21:40:27.112Z,13.20
2018-11-06T21:45:30.155Z,13.11
2018-11-06T21:50:33.206Z,13.07
2018-11-06T21:55:36.259Z,12.99
2018-11-06T22:00:39.368Z,12.87
2018-11-06T22:05:42.379Z,12.75
2018-11-06T22:10:45.388Z,12.77
2018-11-06T22:15:48.443Z,12.82
2018-11-06T22:20:51.470Z,12.79
2018-11-06T22:25:54.490Z,12.50
2018-11-06T22:30:57.535Z,12.53
2018-11-06T22:36:00.567Z,12.63
2018-11-06T22:41:03.620Z,12.59
2018-11-06T22:46:06.665Z,12.55
2018-11-06T22:51:09.699Z,12.40
2018-11-06T22:56:12.731Z,12.37
2018-11-06T23:01:21.304Z,12.21
2018-11-06T23:06:24.513Z,12.15
2018-11-06T23:11:27.414Z,12.13
2018-11-06T23:16:30.447Z,12.06
2018-11-06T23:21:33.485Z,11.85
2018-11-06T23:26:36.516Z,11.77
2018-11-06T23:31:39.592Z,11.71
2018-11-06T23:36:42.603Z,11.80
2018-11-06T23:41:45.635Z,11.85
2018-11-06T23:46:48.646Z,11.82
2018-11-06T23:51:51.720Z,11.64
2018-11-06T23:56:54.761Z,11.75
